• Join FlightAware (Why Join?)
  • Login
  • US Flag 
08:30PM EDT


 

Airport Tracker/Info


-or-


 

Live Flight TrackerFlight Track Log ✈ AWE3921 ✈ 30-Apr-2013 ✈ KROC - KDCA

Flight Track Log - Related Links

Times and Time Zones

All times are in EDT time to prevent confusion due to time zone crossing. See the AWE3921 flight status page for this flight to view local times or setup timezone preferences in your user account.

Time Position Orientation Groundspeed Altitude Reporting Facility
EDT Latitude Longitude Course Direction KTS MPH feet Rate Location/Type
12:14PM 43.0975 -77.6972 192° South 160 184 1,300  Level Cleveland Center
12:14PM 43.0872 -77.7061 212° Southwest 161 185 2,000 2,100 Climbing Cleveland Center
12:15PM 43.0333 -77.7231 193° South 215 247 4,100 1,980 Climbing Cleveland Center
12:16PM 42.9939 -77.7247 182° South 235 270 5,200 2,220 Climbing Cleveland Center
12:16PM 42.9647 -77.7289 186° South 255 293 6,400 2,400 Climbing Cleveland Center
12:17PM 42.8500 -77.7167 180° South  Level FlightAware Approximate
12:17PM 42.9211 -77.7339 185° South 264 304 7,600  Level Cleveland Center
12:18PM 42.7612 -77.7373 192° South  Level FlightAware Approximate
12:18PM 42.8544 -77.7339 180° South 292 336 9,900  Level Cleveland Center
12:19PM 42.6728 -77.7632 192° South  Level FlightAware Approximate
12:19PM 42.7694 -77.7519 189° South 298 343 11,200  Level Cleveland Center
12:20PM 42.6700 -77.7761 190° South 319 367 13,300 2,040 Climbing Cleveland Center
12:21PM 42.5831 -77.7997 191° South 348 400 15,300 2,100 Climbing Cleveland Center
12:22PM 42.4731 -77.8272 190° South 353 406 17,500 1,980 Climbing Cleveland Center
12:23PM 42.3736 -77.8542 191° South 359 413 19,300 1,860 Climbing Cleveland Center
12:24PM 42.2764 -77.8778 190° South 365 420 21,300 1,680 Climbing Cleveland Center
12:25PM 42.1769 -77.9044 191° South 365 420 22,800 840 Climbing Cleveland Center
12:26PM 42.0711 -77.9314 191° South 378 435 23,000 60 Climbing Cleveland Center
12:27PM 41.9633 -77.9608 191° South 384 442 23,000  Level Cleveland Center
12:28PM 41.8658 -77.9817 189° South 395 455 23,000  Level Cleveland Center
12:29PM 41.7581 -78.0083 190° South 395 455 23,000  Level Cleveland Center
12:30PM 41.6525 -78.0375 192° South 395 455 23,000  Level Cleveland Center
12:31PM 41.5467 -78.0611 189° South 395 455 23,000  Level Cleveland Center
12:32PM 41.4408 -78.0875 191° South 390 449 23,000  Level Cleveland Center
12:33PM 41.3350 -78.1136 190° South 390 449 23,000  Level Cleveland Center
12:33PM 41.2939 -78.1222 189° South 386 444 23,000  Level New York Center
12:34PM 41.1869 -78.1300 183° South 386 444 23,000  Level New York Center
12:35PM 41.0839 -78.0775 159° South 386 444 23,000  Level New York Center
12:36PM 40.9831 -78.0253 159° South 391 450 23,000 -840 Level New York Center
12:37PM 40.8850 -77.9572 152° Southeast 391 450 21,400 -1,740 Descending New York Center
12:38PM 40.8031 -77.8636 139° Southeast 391 450 19,500 -1,740 Descending New York Center
12:39PM 40.7250 -77.7761 140° Southeast 386 444 18,000 -780 Descending New York Center
12:40PM 40.6469 -77.6861 139° Southeast 380 437 18,000  Level New York Center
12:41PM 40.5764 -77.6078 140° Southeast 370 426 18,000  Level New York Center
12:42PM 40.4900 -77.5119 140° Southeast 370 426 18,000  Level New York Center
12:43PM 40.4214 -77.4344 139° Southeast 370 426 18,000  Level New York Center
12:44PM 40.3392 -77.3419 139° Southeast 360 414 18,000  Level New York Center
12:45PM 40.2725 -77.2650 139° Southeast 360 414 18,000  Level New York Center
12:46PM 40.1875 -77.1781 142° Southeast 360 414 18,000  Level New York Center
12:47PM 40.1042 -77.1381 160° South 355 409 18,000  Level New York Center
12:48PM 40.0031 -77.0825 157° South 355 409 18,000  Level New York Center
12:49PM 39.9178 -77.0397 159° South 360 414 18,000 -120 Level New York Center
12:50PM 39.8183 -76.9875 158° South 360 414 17,800 -900 Descending New York Center
12:51PM 39.7250 -76.9389 158° South 360 414 16,300 -1,500 Descending New York Center
12:52PM 39.6833 -76.9167 158° South 358 412 15,600 -1,500 Descending Potomac TRACON
12:53PM 39.5833 -76.8667 159° South 355 409 14,100 -1,500 Descending Potomac TRACON
12:54PM 39.5000 -76.8167 155° Southeast 348 400 12,600 -840 Descending Potomac TRACON
12:56PM 39.3167 -76.7333 161° South 344 396 11,600 -840 Descending Potomac TRACON
12:57PM 39.2333 -76.6833 155° Southeast 340 391 10,100 -780 Descending Potomac TRACON
12:58PM 39.1500 -76.6833 180° South 290 334 10,100 -60 Level Potomac TRACON
12:59PM 39.0833 -76.7667 224° Southwest 299 344 10,000 -720 Descending Potomac TRACON
01:00PM 39.0333 -76.8333 226° Southwest 279 321 8,700 -1,440 Descending Potomac TRACON
01:01PM 38.9667 -76.9000 218° Southwest 269 310 7,200 -1,200 Descending Potomac TRACON
01:02PM 38.9167 -76.9333 207° Southwest 242 278 6,300 -840 Descending Potomac TRACON
01:03PM 38.8667 -76.9500 195° South 187 215 5,600 -720 Descending Potomac TRACON
01:04PM 38.8167 -76.9500 180° South 184 212 5,000 -420 Descending Potomac TRACON
01:05PM 38.7667 -76.9500 180° South 180 207 4,900 -60 Descending Potomac TRACON
01:06PM 38.7167 -76.9333 165° South 180 207 4,900  Level Potomac TRACON
01:07PM 38.6667 -76.9333 180° South 182 209 5,000  Climbing Potomac TRACON
01:08PM 38.6167 -76.9333 180° South 185 213 5,000 -240 Level Potomac TRACON
01:09PM 38.5667 -76.9167 165° South 184 212 4,600 -540 Descending Potomac TRACON
01:09PM 38.5333 -76.9500 218° Southwest 201 231 4,000 -1,080 Descending Potomac TRACON
01:10PM 38.5500 -77.0000 293° West 195 224 2,600 -720 Descending Potomac TRACON
01:11PM 38.6000 -77.0167 345° North 180 207 2,600 -60 Level Potomac TRACON
01:12PM 38.6500 -77.0167 360° North 179 206 2,500  Descending Potomac TRACON
01:13PM 38.7000 -77.0167 360° North 182 209 2,600 -360 Climbing Potomac TRACON
01:14PM 38.7500 -77.0333 345° North 172 198 1,800 -840 Descending Potomac TRACON